Terminal Aerodrome Forecast
Issued by NWS

Home | Current Version | Previous Version | Text Only | Print | Product List | Glossary On
Versions: 1 2 3 4 5 6 7 8 9 10 11 12 13 14 15 16 17 18 19 20 21 22 23 24 25 26 27 28
000
FTUS41 KBOX 231732
TAFBED
TAF
KBED 231732Z 2318/2418 31010KT 5SM -SHRA OVC035
     FM232000 31011G22KT P6SM OVC040
     FM240700 31016G28KT P6SM SCT250=

USA.gov is the U.S. government's official web portal to all federal, state and local government web resources and services.